sensor_id;sensor_type;location;lat;lon;timestamp;pressure;altitude;pressure_sealevel;temperature;humidity
40794;BME280;26502;51.886;15.604;2023-04-27T00:04:53;100945.54;;;1.51;60.43
40794;BME280;26502;51.886;15.604;2023-04-27T00:10:00;100946.33;;;1.42;60.55
40794;BME280;26502;51.886;15.604;2023-04-27T00:15:08;100945.00;;;1.32;60.68
40794;BME280;26502;51.886;15.604;2023-04-27T00:20:15;100942.22;;;1.32;60.94
40794;BME280;26502;51.886;15.604;2023-04-27T00:25:22;100937.04;;;1.39;61.19
40794;BME280;26502;51.886;15.604;2023-04-27T00:30:29;100936.61;;;1.51;61.33
40794;BME280;26502;51.886;15.604;2023-04-27T00:35:35;100935.33;;;1.65;61.43
40794;BME280;26502;51.886;15.604;2023-04-27T00:40:41;100934.16;;;1.72;61.49
40794;BME280;26502;51.886;15.604;2023-04-27T00:45:48;100935.17;;;1.67;61.60
40794;BME280;26502;51.886;15.604;2023-04-27T00:50:55;100939.23;;;1.69;61.82
40794;BME280;26502;51.886;15.604;2023-04-27T00:56:01;100938.71;;;1.72;62.07
40794;BME280;26502;51.886;15.604;2023-04-27T01:01:07;100937.72;;;1.80;62.35
40794;BME280;26502;51.886;15.604;2023-04-27T01:06:15;100940.60;;;1.90;62.44
40794;BME280;26502;51.886;15.604;2023-04-27T01:11:22;100941.89;;;2.00;62.57
40794;BME280;26502;51.886;15.604;2023-04-27T01:16:28;100947.23;;;2.13;62.55
40794;BME280;26502;51.886;15.604;2023-04-27T01:21:34;100943.27;;;2.19;62.50
40794;BME280;26502;51.886;15.604;2023-04-27T01:26:41;100945.39;;;2.27;62.59
40794;BME280;26502;51.886;15.604;2023-04-27T01:31:48;100941.09;;;2.38;62.70
40794;BME280;26502;51.886;15.604;2023-04-27T01:36:54;100942.33;;;2.43;62.62
40794;BME280;26502;51.886;15.604;2023-04-27T01:42:01;100941.77;;;2.38;62.55
40794;BME280;26502;51.886;15.604;2023-04-27T01:47:07;100944.21;;;2.34;62.75
40794;BME280;26502;51.886;15.604;2023-04-27T01:52:14;100947.59;;;2.42;62.75
40794;BME280;26502;51.886;15.604;2023-04-27T01:57:20;100952.48;;;2.41;62.63
40794;BME280;26502;51.886;15.604;2023-04-27T02:02:26;100959.04;;;2.25;62.70
40794;BME280;26502;51.886;15.604;2023-04-27T02:07:33;100962.48;;;2.14;62.92
40794;BME280;26502;51.886;15.604;2023-04-27T02:12:39;100965.48;;;2.15;63.12
40794;BME280;26502;51.886;15.604;2023-04-27T02:17:46;100970.31;;;2.07;63.01
40794;BME280;26502;51.886;15.604;2023-04-27T02:22:52;100969.98;;;2.08;63.33
40794;BME280;26502;51.886;15.604;2023-04-27T02:27:59;100973.52;;;2.12;63.26
40794;BME280;26502;51.886;15.604;2023-04-27T02:33:06;100977.10;;;1.99;63.07
40794;BME280;26502;51.886;15.604;2023-04-27T02:38:12;100982.95;;;1.87;63.10
40794;BME280;26502;51.886;15.604;2023-04-27T02:43:21;100981.46;;;1.77;63.44
40794;BME280;26502;51.886;15.604;2023-04-27T02:48:28;100985.11;;;1.70;63.57
40794;BME280;26502;51.886;15.604;2023-04-27T02:53:35;100984.26;;;1.74;63.70
40794;BME280;26502;51.886;15.604;2023-04-27T02:58:41;100986.13;;;1.87;63.88
40794;BME280;26502;51.886;15.604;2023-04-27T03:03:48;100990.09;;;2.02;64.10
40794;BME280;26502;51.886;15.604;2023-04-27T03:08:54;100992.44;;;2.12;63.93
40794;BME280;26502;51.886;15.604;2023-04-27T03:14:01;100991.98;;;2.20;63.97
40794;BME280;26502;51.886;15.604;2023-04-27T03:19:07;100993.67;;;2.14;64.04
40794;BME280;26502;51.886;15.604;2023-04-27T03:24:14;100999.48;;;2.18;64.21
40794;BME280;26502;51.886;15.604;2023-04-27T03:29:20;101002.86;;;2.25;64.44
40794;BME280;26502;51.886;15.604;2023-04-27T03:34:27;101004.83;;;2.31;64.49
40794;BME280;26502;51.886;15.604;2023-04-27T03:39:33;101009.63;;;2.41;64.67
40794;BME280;26502;51.886;15.604;2023-04-27T03:44:40;101011.73;;;2.41;64.47
40794;BME280;26502;51.886;15.604;2023-04-27T03:49:46;101012.85;;;2.52;64.60
40794;BME280;26502;51.886;15.604;2023-04-27T03:54:54;101013.16;;;2.46;64.41
40794;BME280;26502;51.886;15.604;2023-04-27T04:00:00;101013.64;;;2.36;64.64
40794;BME280;26502;51.886;15.604;2023-04-27T04:05:17;101017.60;;;2.29;64.74
40794;BME280;26502;51.886;15.604;2023-04-27T04:10:24;101023.51;;;2.19;64.83
40794;BME280;26502;51.886;15.604;2023-04-27T04:15:33;101029.10;;;2.19;64.96
40794;BME280;26502;51.886;15.604;2023-04-27T04:20:39;101033.73;;;2.28;65.21
40794;BME280;26502;51.886;15.604;2023-04-27T04:25:47;101041.00;;;2.41;65.29
40794;BME280;26502;51.886;15.604;2023-04-27T04:30:53;101050.45;;;2.64;65.36
40794;BME280;26502;51.886;15.604;2023-04-27T04:36:00;101050.84;;;2.71;65.26
40794;BME280;26502;51.886;15.604;2023-04-27T04:41:09;101054.49;;;2.67;65.19
40794;BME280;26502;51.886;15.604;2023-04-27T04:46:16;101055.22;;;2.69;65.29
40794;BME280;26502;51.886;15.604;2023-04-27T04:51:23;101055.92;;;2.72;65.21
40794;BME280;26502;51.886;15.604;2023-04-27T04:56:30;101062.24;;;2.72;65.36
40794;BME280;26502;51.886;15.604;2023-04-27T05:01:38;101063.84;;;2.74;65.59
40794;BME280;26502;51.886;15.604;2023-04-27T05:06:44;101071.73;;;2.77;65.63
40794;BME280;26502;51.886;15.604;2023-04-27T05:11:51;101077.41;;;2.89;65.84
40794;BME280;26502;51.886;15.604;2023-04-27T05:16:57;101084.86;;;3.01;65.72
40794;BME280;26502;51.886;15.604;2023-04-27T05:22:03;101092.08;;;3.06;65.90
40794;BME280;26502;51.886;15.604;2023-04-27T05:27:11;101092.31;;;3.18;65.87
40794;BME280;26502;51.886;15.604;2023-04-27T05:32:17;101101.54;;;3.42;66.07
40794;BME280;26502;51.886;15.604;2023-04-27T05:37:25;101105.23;;;3.48;65.81
40794;BME280;26502;51.886;15.604;2023-04-27T05:42:31;101103.15;;;3.50;65.73
40794;BME280;26502;51.886;15.604;2023-04-27T05:47:37;101105.46;;;3.63;65.74
40794;BME280;26502;51.886;15.604;2023-04-27T05:52:44;101107.06;;;3.66;65.80
40794;BME280;26502;51.886;15.604;2023-04-27T05:57:51;101107.08;;;3.74;65.88
40794;BME280;26502;51.886;15.604;2023-04-27T06:02:59;101108.16;;;3.84;66.20
40794;BME280;26502;51.886;15.604;2023-04-27T06:08:06;101105.39;;;4.08;66.62
40794;BME280;26502;51.886;15.604;2023-04-27T06:13:12;101106.99;;;4.32;66.42
40794;BME280;26502;51.886;15.604;2023-04-27T06:18:20;101109.96;;;4.56;66.50
40794;BME280;26502;51.886;15.604;2023-04-27T06:23:26;101104.31;;;4.74;66.27
40794;BME280;26502;51.886;15.604;2023-04-27T06:28:33;101105.85;;;4.93;66.12
40794;BME280;26502;51.886;15.604;2023-04-27T06:33:39;101104.55;;;5.17;66.21
40794;BME280;26502;51.886;15.604;2023-04-27T06:38:46;101103.02;;;5.50;65.93
40794;BME280;26502;51.886;15.604;2023-04-27T06:43:52;101103.58;;;5.77;65.73
40794;BME280;26502;51.886;15.604;2023-04-27T06:48:59;101099.01;;;6.05;65.34
40794;BME280;26502;51.886;15.604;2023-04-27T06:54:06;101101.30;;;6.29;65.01
40794;BME280;26502;51.886;15.604;2023-04-27T06:59:12;101100.31;;;6.44;64.79
40794;BME280;26502;51.886;15.604;2023-04-27T07:04:19;101098.96;;;6.56;64.40
40794;BME280;26502;51.886;15.604;2023-04-27T07:09:26;101100.38;;;6.74;64.01
40794;BME280;26502;51.886;15.604;2023-04-27T07:14:33;101094.70;;;6.78;63.20
40794;BME280;26502;51.886;15.604;2023-04-27T07:19:41;101097.75;;;6.90;63.07
40794;BME280;26502;51.886;15.604;2023-04-27T07:24:47;101100.23;;;7.21;62.59
40794;BME280;26502;51.886;15.604;2023-04-27T07:29:53;101101.91;;;7.56;62.04
40794;BME280;26502;51.886;15.604;2023-04-27T07:35:00;101101.74;;;7.69;61.25
40794;BME280;26502;51.886;15.604;2023-04-27T07:40:09;101102.96;;;8.07;61.08
40794;BME280;26502;51.886;15.604;2023-04-27T07:45:21;101101.56;;;8.51;60.42
40794;BME280;26502;51.886;15.604;2023-04-27T07:50:35;101104.94;;;8.51;59.45
40794;BME280;26502;51.886;15.604;2023-04-27T07:55:41;101107.92;;;8.52;59.05
40794;BME280;26502;51.886;15.604;2023-04-27T08:00:48;101115.38;;;8.82;58.67
40794;BME280;26502;51.886;15.604;2023-04-27T08:05:55;101115.07;;;8.79;57.71
40794;BME280;26502;51.886;15.604;2023-04-27T08:11:01;101110.50;;;9.15;57.72
40794;BME280;26502;51.886;15.604;2023-04-27T08:16:08;101103.49;;;9.46;56.57
40794;BME280;26502;51.886;15.604;2023-04-27T08:21:15;101113.77;;;9.29;53.80
40794;BME280;26502;51.886;15.604;2023-04-27T08:26:22;101113.02;;;9.14;53.86
40794;BME280;26502;51.886;15.604;2023-04-27T08:31:29;101110.90;;;9.12;53.76
40794;BME280;26502;51.886;15.604;2023-04-27T08:36:35;101115.82;;;9.06;53.60
40794;BME280;26502;51.886;15.604;2023-04-27T08:41:43;101117.93;;;8.97;53.38
40794;BME280;26502;51.886;15.604;2023-04-27T08:46:50;101120.33;;;9.01;53.52
40794;BME280;26502;51.886;15.604;2023-04-27T08:51:57;101121.56;;;9.02;53.32
40794;BME280;26502;51.886;15.604;2023-04-27T08:57:09;101120.45;;;9.05;52.96
40794;BME280;26502;51.886;15.604;2023-04-27T09:02:21;101120.52;;;9.20;52.99
40794;BME280;26502;51.886;15.604;2023-04-27T09:07:28;101121.53;;;9.22;52.32
40794;BME280;26502;51.886;15.604;2023-04-27T09:12:35;101127.02;;;9.22;52.64
40794;BME280;26502;51.886;15.604;2023-04-27T09:17:41;101125.73;;;9.25;52.48
40794;BME280;26502;51.886;15.604;2023-04-27T09:22:50;101117.34;;;9.28;52.36
40794;BME280;26502;51.886;15.604;2023-04-27T09:28:00;101115.28;;;9.50;51.94
40794;BME280;26502;51.886;15.604;2023-04-27T09:33:07;101112.44;;;9.16;50.77
40794;BME280;26502;51.886;15.604;2023-04-27T09:38:14;101120.11;;;8.94;51.31
40794;BME280;26502;51.886;15.604;2023-04-27T09:43:20;101120.63;;;8.85;51.06
40794;BME280;26502;51.886;15.604;2023-04-27T09:48:27;101119.83;;;8.70;51.12
40794;BME280;26502;51.886;15.604;2023-04-27T09:53:35;101122.50;;;8.59;51.33
40794;BME280;26502;51.886;15.604;2023-04-27T09:58:48;101119.51;;;8.79;51.60
40794;BME280;26502;51.886;15.604;2023-04-27T10:04:11;101114.23;;;8.97;51.45
40794;BME280;26502;51.886;15.604;2023-04-27T10:09:20;101111.48;;;8.91;51.26
40794;BME280;26502;51.886;15.604;2023-04-27T10:14:28;101111.91;;;8.78;51.05
40794;BME280;26502;51.886;15.604;2023-04-27T10:19:34;101117.42;;;8.77;51.03
40794;BME280;26502;51.886;15.604;2023-04-27T10:24:42;101116.35;;;8.87;51.09
40794;BME280;26502;51.886;15.604;2023-04-27T10:29:53;101122.12;;;8.92;50.75
40794;BME280;26502;51.886;15.604;2023-04-27T10:35:07;101119.76;;;9.04;51.20
40794;BME280;26502;51.886;15.604;2023-04-27T10:40:16;101119.42;;;9.02;51.06
40794;BME280;26502;51.886;15.604;2023-04-27T10:45:29;101116.63;;;9.01;51.04
40794;BME280;26502;51.886;15.604;2023-04-27T10:50:35;101125.14;;;8.81;51.58
40794;BME280;26502;51.886;15.604;2023-04-27T10:55:42;101125.59;;;8.55;52.51
40794;BME280;26502;51.886;15.604;2023-04-27T11:00:50;101119.12;;;8.60;53.83
40794;BME280;26502;51.886;15.604;2023-04-27T11:06:02;101119.89;;;8.87;54.95
40794;BME280;26502;51.886;15.604;2023-04-27T11:11:12;101118.94;;;9.09;55.01
40794;BME280;26502;51.886;15.604;2023-04-27T11:16:19;101118.55;;;9.11;54.37
40794;BME280;26502;51.886;15.604;2023-04-27T11:21:25;101121.20;;;8.93;54.10
40794;BME280;26502;51.886;15.604;2023-04-27T11:26:32;101130.56;;;8.74;54.25
40794;BME280;26502;51.886;15.604;2023-04-27T11:31:43;101138.02;;;8.73;54.17
40794;BME280;26502;51.886;15.604;2023-04-27T11:36:58;101141.98;;;8.59;54.03
40794;BME280;26502;51.886;15.604;2023-04-27T11:42:20;101134.67;;;8.62;54.26
40794;BME280;26502;51.886;15.604;2023-04-27T11:47:28;101133.77;;;8.83;54.19
40794;BME280;26502;51.886;15.604;2023-04-27T11:52:36;101134.55;;;9.09;54.15
40794;BME280;26502;51.886;15.604;2023-04-27T11:57:43;101132.52;;;9.21;53.75
40794;BME280;26502;51.886;15.604;2023-04-27T12:02:49;101129.98;;;9.25;53.16
40794;BME280;26502;51.886;15.604;2023-04-27T12:07:56;101127.18;;;9.49;53.38
40794;BME280;26502;51.886;15.604;2023-04-27T12:13:02;101127.35;;;9.67;52.82
40794;BME280;26502;51.886;15.604;2023-04-27T12:18:09;101121.43;;;9.77;52.31
40794;BME280;26502;51.886;15.604;2023-04-27T12:23:16;101120.95;;;9.83;52.16
40794;BME280;26502;51.886;15.604;2023-04-27T12:28:22;101123.47;;;9.74;51.33
40794;BME280;26502;51.886;15.604;2023-04-27T12:33:28;101128.89;;;9.69;50.77
40794;BME280;26502;51.886;15.604;2023-04-27T12:38:35;101133.30;;;9.87;48.96
40794;BME280;26502;51.886;15.604;2023-04-27T12:43:42;101138.46;;;9.94;48.38
40794;BME280;26502;51.886;15.604;2023-04-27T12:48:49;101132.05;;;10.10;48.64
40794;BME280;26502;51.886;15.604;2023-04-27T12:53:55;101132.41;;;10.33;48.15
40794;BME280;26502;51.886;15.604;2023-04-27T12:59:02;101131.84;;;10.50;47.67
40794;BME280;26502;51.886;15.604;2023-04-27T13:04:15;101128.66;;;10.91;47.81
40794;BME280;26502;51.886;15.604;2023-04-27T13:09:22;101127.71;;;11.13;47.22
40794;BME280;26502;51.886;15.604;2023-04-27T13:14:29;101125.26;;;10.79;46.46
40794;BME280;26502;51.886;15.604;2023-04-27T13:19:37;101128.21;;;10.67;46.82
40794;BME280;26502;51.886;15.604;2023-04-27T13:24:43;101129.44;;;10.68;46.59
40794;BME280;26502;51.886;15.604;2023-04-27T13:29:50;101124.86;;;10.73;46.52
40794;BME280;26502;51.886;15.604;2023-04-27T13:34:56;101126.80;;;11.39;47.05
40794;BME280;26502;51.886;15.604;2023-04-27T13:40:03;101120.81;;;12.31;46.53
40794;BME280;26502;51.886;15.604;2023-04-27T13:45:11;101126.84;;;11.92;43.30
40794;BME280;26502;51.886;15.604;2023-04-27T13:50:17;101127.10;;;11.77;44.55
40794;BME280;26502;51.886;15.604;2023-04-27T13:55:25;101122.68;;;11.77;44.47
40794;BME280;26502;51.886;15.604;2023-04-27T14:00:31;101124.67;;;11.88;44.92
40794;BME280;26502;51.886;15.604;2023-04-27T14:05:38;101121.70;;;12.79;44.69
40794;BME280;26502;51.886;15.604;2023-04-27T14:10:44;101123.95;;;12.92;43.71
40794;BME280;26502;51.886;15.604;2023-04-27T14:15:51;101115.73;;;12.72;43.10
40794;BME280;26502;51.886;15.604;2023-04-27T14:20:57;101117.18;;;12.66;42.94
40794;BME280;26502;51.886;15.604;2023-04-27T14:26:04;101120.31;;;12.30;43.18
40794;BME280;26502;51.886;15.604;2023-04-27T14:31:10;101120.04;;;12.17;43.14
40794;BME280;26502;51.886;15.604;2023-04-27T14:36:17;101118.71;;;12.14;43.46
40794;BME280;26502;51.886;15.604;2023-04-27T14:41:23;101118.79;;;11.94;43.49
40794;BME280;26502;51.886;15.604;2023-04-27T14:46:32;101127.89;;;11.75;43.49
40794;BME280;26502;51.886;15.604;2023-04-27T14:51:38;101132.94;;;11.24;42.91
40794;BME280;26502;51.886;15.604;2023-04-27T14:56:45;101129.47;;;10.81;42.64
40794;BME280;26502;51.886;15.604;2023-04-27T15:01:51;101131.52;;;10.83;43.38
40794;BME280;26502;51.886;15.604;2023-04-27T15:06:58;101129.41;;;11.09;43.53
40794;BME280;26502;51.886;15.604;2023-04-27T15:12:07;101135.45;;;11.03;43.33
40794;BME280;26502;51.886;15.604;2023-04-27T15:17:14;101133.76;;;10.80;43.38
40794;BME280;26502;51.886;15.604;2023-04-27T15:22:21;101133.98;;;10.78;43.44
40794;BME280;26502;51.886;15.604;2023-04-27T15:27:27;101130.33;;;10.75;43.36
40794;BME280;26502;51.886;15.604;2023-04-27T15:32:34;101132.95;;;10.63;42.97
40794;BME280;26502;51.886;15.604;2023-04-27T15:37:41;101139.84;;;10.50;43.41
40794;BME280;26502;51.886;15.604;2023-04-27T15:42:47;101136.94;;;10.60;43.54
40794;BME280;26502;51.886;15.604;2023-04-27T15:47:54;101134.81;;;10.52;43.59
40794;BME280;26502;51.886;15.604;2023-04-27T15:53:00;101132.22;;;10.56;43.63
40794;BME280;26502;51.886;15.604;2023-04-27T15:58:06;101130.89;;;10.60;43.67
40794;BME280;26502;51.886;15.604;2023-04-27T16:03:13;101128.06;;;10.74;43.64
40794;BME280;26502;51.886;15.604;2023-04-27T16:08:20;101130.63;;;10.76;43.43
40794;BME280;26502;51.886;15.604;2023-04-27T16:13:27;101128.16;;;10.69;43.57
40794;BME280;26502;51.886;15.604;2023-04-27T16:18:33;101127.02;;;10.58;43.38
40794;BME280;26502;51.886;15.604;2023-04-27T16:23:39;101125.84;;;10.56;43.67
40794;BME280;26502;51.886;15.604;2023-04-27T16:28:46;101119.32;;;10.68;43.61
40794;BME280;26502;51.886;15.604;2023-04-27T16:33:52;101118.60;;;10.68;43.53
40794;BME280;26502;51.886;15.604;2023-04-27T16:38:58;101120.11;;;10.65;43.62
40794;BME280;26502;51.886;15.604;2023-04-27T16:44:06;101113.93;;;10.77;43.69
40794;BME280;26502;51.886;15.604;2023-04-27T16:49:12;101115.65;;;10.72;43.68
40794;BME280;26502;51.886;15.604;2023-04-27T16:54:18;101116.31;;;10.67;43.71
40794;BME280;26502;51.886;15.604;2023-04-27T16:59:25;101115.10;;;10.73;43.87
40794;BME280;26502;51.886;15.604;2023-04-27T17:04:32;101117.64;;;10.71;43.93
40794;BME280;26502;51.886;15.604;2023-04-27T17:09:43;101117.03;;;10.60;43.75
40794;BME280;26502;51.886;15.604;2023-04-27T17:14:49;101113.05;;;10.56;43.92
40794;BME280;26502;51.886;15.604;2023-04-27T17:19:56;101116.34;;;10.45;44.22
40794;BME280;26502;51.886;15.604;2023-04-27T17:25:02;101116.47;;;10.54;44.31
40794;BME280;26502;51.886;15.604;2023-04-27T17:30:10;101120.09;;;10.51;44.47
40794;BME280;26502;51.886;15.604;2023-04-27T17:35:16;101125.32;;;10.41;44.24
40794;BME280;26502;51.886;15.604;2023-04-27T17:40:24;101124.72;;;10.13;44.50
40794;BME280;26502;51.886;15.604;2023-04-27T17:45:31;101127.64;;;10.10;44.87
40794;BME280;26502;51.886;15.604;2023-04-27T17:50:38;101128.11;;;10.19;45.22
40794;BME280;26502;51.886;15.604;2023-04-27T17:55:46;101128.98;;;10.20;45.32
40794;BME280;26502;51.886;15.604;2023-04-27T18:00:53;101133.23;;;10.05;45.77
40794;BME280;26502;51.886;15.604;2023-04-27T18:05:59;101132.26;;;9.94;45.90
40794;BME280;26502;51.886;15.604;2023-04-27T18:11:06;101136.95;;;9.74;46.23
40794;BME280;26502;51.886;15.604;2023-04-27T18:16:14;101143.42;;;9.62;46.62
40794;BME280;26502;51.886;15.604;2023-04-27T18:21:21;101148.03;;;9.44;46.58
40794;BME280;26502;51.886;15.604;2023-04-27T18:26:31;101152.22;;;9.21;47.06
40794;BME280;26502;51.886;15.604;2023-04-27T18:31:39;101156.58;;;8.95;47.32
40794;BME280;26502;51.886;15.604;2023-04-27T18:36:45;101160.61;;;8.67;47.71
40794;BME280;26502;51.886;15.604;2023-04-27T18:41:54;101167.52;;;8.44;48.06
40794;BME280;26502;51.886;15.604;2023-04-27T18:47:02;101175.98;;;8.34;48.33
40794;BME280;26502;51.886;15.604;2023-04-27T18:52:08;101179.44;;;8.15;48.52
40794;BME280;26502;51.886;15.604;2023-04-27T18:57:15;101184.24;;;8.01;48.99
40794;BME280;26502;51.886;15.604;2023-04-27T19:02:22;101187.70;;;7.93;49.20
40794;BME280;26502;51.886;15.604;2023-04-27T19:07:30;101193.70;;;7.81;49.42
40794;BME280;26502;51.886;15.604;2023-04-27T19:12:37;101196.73;;;7.65;49.49
40794;BME280;26502;51.886;15.604;2023-04-27T19:17:43;101203.08;;;7.50;49.91
40794;BME280;26502;51.886;15.604;2023-04-27T19:22:50;101205.41;;;7.31;50.09
40794;BME280;26502;51.886;15.604;2023-04-27T19:27:57;101202.71;;;7.18;50.52
40794;BME280;26502;51.886;15.604;2023-04-27T19:33:05;101203.02;;;7.06;50.74
40794;BME280;26502;51.886;15.604;2023-04-27T19:38:11;101207.10;;;7.03;50.93
40794;BME280;26502;51.886;15.604;2023-04-27T19:43:17;101208.98;;;6.90;51.04
40794;BME280;26502;51.886;15.604;2023-04-27T19:48:23;101203.96;;;6.78;51.40
40794;BME280;26502;51.886;15.604;2023-04-27T19:53:30;101211.45;;;6.69;51.48
40794;BME280;26502;51.886;15.604;2023-04-27T19:58:37;101211.05;;;6.24;51.71
40794;BME280;26502;51.886;15.604;2023-04-27T20:03:43;101208.65;;;6.13;52.09
40794;BME280;26502;51.886;15.604;2023-04-27T20:08:51;101209.44;;;6.00;52.49
40794;BME280;26502;51.886;15.604;2023-04-27T20:13:57;101206.11;;;5.90;52.48
40794;BME280;26502;51.886;15.604;2023-04-27T20:19:04;101200.36;;;5.69;52.80
40794;BME280;26502;51.886;15.604;2023-04-27T20:24:10;101197.77;;;5.56;52.95
40794;BME280;26502;51.886;15.604;2023-04-27T20:29:16;101197.28;;;5.46;53.09
40794;BME280;26502;51.886;15.604;2023-04-27T20:34:22;101200.52;;;5.14;53.13
40794;BME280;26502;51.886;15.604;2023-04-27T20:39:29;101199.83;;;4.94;53.60
40794;BME280;26502;51.886;15.604;2023-04-27T20:44:36;101201.79;;;4.79;53.65
40794;BME280;26502;51.886;15.604;2023-04-27T20:49:42;101211.29;;;4.56;53.96
40794;BME280;26502;51.886;15.604;2023-04-27T20:54:49;101208.82;;;4.58;54.48
40794;BME280;26502;51.886;15.604;2023-04-27T20:59:55;101208.98;;;4.67;54.58
40794;BME280;26502;51.886;15.604;2023-04-27T21:05:01;101208.29;;;4.60;54.53
40794;BME280;26502;51.886;15.604;2023-04-27T21:10:09;101205.81;;;4.43;54.71
40794;BME280;26502;51.886;15.604;2023-04-27T21:15:16;101203.67;;;4.22;54.88
40794;BME280;26502;51.886;15.604;2023-04-27T21:20:23;101198.58;;;4.31;55.31
40794;BME280;26502;51.886;15.604;2023-04-27T21:25:29;101196.64;;;4.25;55.24
40794;BME280;26502;51.886;15.604;2023-04-27T21:30:35;101196.27;;;4.13;55.29
40794;BME280;26502;51.886;15.604;2023-04-27T21:35:41;101197.66;;;4.07;55.44
40794;BME280;26502;51.886;15.604;2023-04-27T21:40:47;101206.77;;;3.95;55.46
40794;BME280;26502;51.886;15.604;2023-04-27T21:45:54;101208.73;;;3.60;55.31
40794;BME280;26502;51.886;15.604;2023-04-27T21:51:00;101206.55;;;3.45;56.04
40794;BME280;26502;51.886;15.604;2023-04-27T21:56:07;101200.21;;;3.43;56.14
40794;BME280;26502;51.886;15.604;2023-04-27T22:01:14;101200.42;;;3.47;56.28
40794;BME280;26502;51.886;15.604;2023-04-27T22:06:21;101204.48;;;3.54;56.40
40794;BME280;26502;51.886;15.604;2023-04-27T22:11:27;101200.77;;;3.48;56.51
40794;BME280;26502;51.886;15.604;2023-04-27T22:16:34;101196.70;;;3.40;56.65
40794;BME280;26502;51.886;15.604;2023-04-27T22:21:39;101193.47;;;3.28;56.61
40794;BME280;26502;51.886;15.604;2023-04-27T22:26:46;101192.51;;;3.14;56.78
40794;BME280;26502;51.886;15.604;2023-04-27T22:31:52;101189.27;;;3.02;56.92
40794;BME280;26502;51.886;15.604;2023-04-27T22:36:59;101190.65;;;2.75;56.82
40794;BME280;26502;51.886;15.604;2023-04-27T22:42:05;101195.15;;;2.68;57.42
40794;BME280;26502;51.886;15.604;2023-04-27T22:47:11;101196.24;;;2.72;57.45
40794;BME280;26502;51.886;15.604;2023-04-27T22:52:18;101199.08;;;2.55;57.35
40794;BME280;26502;51.886;15.604;2023-04-27T22:57:25;101200.17;;;2.41;57.50
40794;BME280;26502;51.886;15.604;2023-04-27T23:07:37;101196.79;;;2.18;57.63
40794;BME280;26502;51.886;15.604;2023-04-27T23:12:45;101192.80;;;2.22;58.29
40794;BME280;26502;51.886;15.604;2023-04-27T23:17:51;101192.78;;;2.37;58.22
40794;BME280;26502;51.886;15.604;2023-04-27T23:22:58;101192.31;;;2.26;57.95
40794;BME280;26502;51.886;15.604;2023-04-27T23:28:04;101199.48;;;2.24;58.27
40794;BME280;26502;51.886;15.604;2023-04-27T23:33:11;101202.87;;;2.11;58.20
40794;BME280;26502;51.886;15.604;2023-04-27T23:38:17;101203.30;;;1.73;58.15
40794;BME280;26502;51.886;15.604;2023-04-27T23:43:23;101198.09;;;1.76;58.78
40794;BME280;26502;51.886;15.604;2023-04-27T23:48:31;101192.79;;;1.86;58.83
40794;BME280;26502;51.886;15.604;2023-04-27T23:53:37;101194.58;;;1.91;59.00
40794;BME280;26502;51.886;15.604;2023-04-27T23:58:43;101191.30;;;1.95;58.97
